createdAt,value
2023-09-04T00:00:57.923Z,7.50
2023-09-04T00:03:25.887Z,7.60
2023-09-04T00:05:52.332Z,7.80
2023-09-04T00:08:19.066Z,7.65
2023-09-04T00:10:45.645Z,7.60
2023-09-04T00:13:13.278Z,7.95
2023-09-04T00:15:39.999Z,8.18
2023-09-04T00:18:06.760Z,7.35
2023-09-04T00:20:33.204Z,7.72
2023-09-04T00:22:59.640Z,9.15
2023-09-04T00:25:26.117Z,8.55
2023-09-04T00:27:52.572Z,8.63
2023-09-04T00:30:18.965Z,7.55
2023-09-04T00:32:45.520Z,8.02
2023-09-04T00:35:14.906Z,7.95
2023-09-04T00:37:44.568Z,8.10
2023-09-04T00:40:11.153Z,8.63
2023-09-04T00:42:37.647Z,8.20
2023-09-04T00:45:04.526Z,8.75
2023-09-04T00:47:31.009Z,8.63
2023-09-04T00:49:58.174Z,8.43
2023-09-04T00:52:25.716Z,8.10
2023-09-04T00:54:52.751Z,8.05
2023-09-04T00:57:19.833Z,8.27
2023-09-04T00:59:46.690Z,8.10
2023-09-04T01:02:14.944Z,7.93
2023-09-04T01:04:41.834Z,8.13
2023-09-04T01:07:08.249Z,8.10
2023-09-04T01:09:34.744Z,8.15
2023-09-04T01:12:10.420Z,8.27
2023-09-04T01:14:40.196Z,8.00
2023-09-04T01:17:06.884Z,7.93
2023-09-04T01:19:33.483Z,7.88
2023-09-04T01:21:59.898Z,7.72
2023-09-04T01:24:26.329Z,8.00
2023-09-04T01:26:52.797Z,7.85
2023-09-04T01:29:22.349Z,8.13
2023-09-04T01:31:52.150Z,8.38
2023-09-04T01:34:25.584Z,8.00
2023-09-04T01:36:53.154Z,7.85
2023-09-04T01:39:20.932Z,8.55
2023-09-04T01:41:47.377Z,7.88
2023-09-04T01:44:15.528Z,8.07
2023-09-04T01:46:41.935Z,7.57
2023-09-04T01:49:09.000Z,8.15
2023-09-04T01:51:35.448Z,8.23
2023-09-04T01:54:01.965Z,8.40
2023-09-04T01:56:28.425Z,8.80
2023-09-04T01:58:54.839Z,7.75
2023-09-04T02:01:21.308Z,7.90
2023-09-04T02:03:57.819Z,8.48
2023-09-04T02:06:25.115Z,8.13
2023-09-04T02:08:51.554Z,8.95
2023-09-04T02:11:17.977Z,8.38
2023-09-04T02:13:46.710Z,8.05
2023-09-04T02:16:13.843Z,8.63
2023-09-04T02:18:40.636Z,8.30
2023-09-04T02:21:07.463Z,8.45
2023-09-04T02:23:33.915Z,8.48
2023-09-04T02:26:00.419Z,8.65
2023-09-04T02:28:26.910Z,8.43
2023-09-04T02:30:53.326Z,8.50
2023-09-04T02:33:19.744Z,8.55
2023-09-04T02:35:46.161Z,8.57
2023-09-04T02:38:12.629Z,9.18
2023-09-04T02:40:39.144Z,9.07
2023-09-04T02:43:05.590Z,9.20
2023-09-04T02:45:33.123Z,9.35
2023-09-04T02:47:59.655Z,9.35
2023-09-04T02:50:26.106Z,9.88
2023-09-04T02:52:52.522Z,9.52
2023-09-04T02:55:19.010Z,9.63
2023-09-04T02:57:45.416Z,9.55
2023-09-04T03:00:13.546Z,9.55
2023-09-04T03:02:40.104Z,9.55
2023-09-04T03:05:07.011Z,9.18
2023-09-04T03:07:33.458Z,9.23
2023-09-04T03:10:00.850Z,9.13
2023-09-04T03:12:27.992Z,9.18
2023-09-04T03:14:57.999Z,10.10
2023-09-04T03:17:26.145Z,9.65
2023-09-04T03:19:56.944Z,10.27
2023-09-04T03:22:23.726Z,9.13
2023-09-04T03:24:50.460Z,9.77
2023-09-04T03:27:17.491Z,9.48
2023-09-04T03:29:43.965Z,9.90
2023-09-04T03:32:10.708Z,9.77
2023-09-04T03:34:38.017Z,9.93
2023-09-04T03:37:04.792Z,10.02
2023-09-04T03:39:35.346Z,9.65
2023-09-04T03:42:01.782Z,9.73
2023-09-04T03:44:28.226Z,9.95
2023-09-04T03:46:54.619Z,10.02
2023-09-04T03:49:21.238Z,10.38
2023-09-04T03:51:47.710Z,10.45
2023-09-04T03:54:14.159Z,10.68
2023-09-04T03:56:40.605Z,11.02
2023-09-04T03:59:07.028Z,11.35
2023-09-04T04:01:34.334Z,11.85
2023-09-04T04:04:03.897Z,11.10
2023-09-04T04:06:30.438Z,11.15
2023-09-04T04:08:56.862Z,10.35
2023-09-04T04:11:23.389Z,11.30
2023-09-04T04:13:49.791Z,10.82
2023-09-04T04:16:16.358Z,10.32
2023-09-04T04:18:42.871Z,10.55
2023-09-04T04:21:09.320Z,11.30
2023-09-04T04:23:36.136Z,11.73
2023-09-04T04:26:02.610Z,11.35
2023-09-04T04:28:28.988Z,10.52
2023-09-04T04:30:55.480Z,11.13
2023-09-04T04:33:22.966Z,11.23
2023-09-04T04:35:52.793Z,11.93
2023-09-04T04:38:19.234Z,12.38
2023-09-04T04:40:45.760Z,12.57
2023-09-04T04:43:12.197Z,12.18
2023-09-04T04:45:38.604Z,12.13
2023-09-04T04:48:05.404Z,15.95
2023-09-04T04:50:32.110Z,14.85
2023-09-04T04:52:58.592Z,12.23
2023-09-04T04:55:25.038Z,11.18
2023-09-04T04:57:51.496Z,11.43
2023-09-04T05:00:18.132Z,12.60
2023-09-04T05:02:44.628Z,11.07
2023-09-04T05:05:12.072Z,11.77
2023-09-04T05:07:38.628Z,11.45
2023-09-04T05:10:05.329Z,11.30
2023-09-04T05:12:34.183Z,11.52
2023-09-04T05:15:00.705Z,11.35
2023-09-04T05:17:27.268Z,11.52
2023-09-04T05:19:53.762Z,12.40
2023-09-04T05:22:20.247Z,12.13
2023-09-04T05:24:46.662Z,11.52
2023-09-04T05:27:13.084Z,11.70
2023-09-04T05:29:39.435Z,12.48
2023-09-04T05:32:06.041Z,11.55
2023-09-04T05:34:32.469Z,17.15
2023-09-04T05:36:58.925Z,14.88
2023-09-04T05:39:25.362Z,12.70
2023-09-04T05:41:52.180Z,12.55
2023-09-04T05:44:18.549Z,13.45
2023-09-04T05:46:45.209Z,12.07
2023-09-04T05:49:11.877Z,11.77
2023-09-04T05:51:38.268Z,11.60
2023-09-04T05:54:04.776Z,12.52
2023-09-04T05:56:31.288Z,10.85
2023-09-04T05:58:57.902Z,12.20
2023-09-04T06:01:25.219Z,11.15
2023-09-04T06:03:51.861Z,12.15
2023-09-04T06:06:18.389Z,11.35
2023-09-04T06:08:44.824Z,11.73
2023-09-04T06:11:11.371Z,10.50
2023-09-04T06:13:37.819Z,11.70
2023-09-04T06:16:04.872Z,10.25
2023-09-04T06:18:31.685Z,10.45
2023-09-04T06:20:58.163Z,10.43
2023-09-04T06:23:24.795Z,11.10
2023-09-04T06:25:51.382Z,9.93
2023-09-04T06:28:17.847Z,10.32
2023-09-04T06:30:46.191Z,9.50
2023-09-04T06:33:12.970Z,9.55
2023-09-04T06:35:39.488Z,9.32
2023-09-04T06:38:06.960Z,8.77
2023-09-04T06:40:33.457Z,9.18
2023-09-04T06:42:59.936Z,9.10
2023-09-04T06:45:26.422Z,8.00
2023-09-04T06:47:53.601Z,7.82
2023-09-04T06:50:20.089Z,8.57
2023-09-04T06:52:46.693Z,8.40
2023-09-04T06:55:13.098Z,8.30
2023-09-04T06:57:39.608Z,7.28
2023-09-04T07:00:29.471Z,8.10
2023-09-04T07:02:56.032Z,9.35
2023-09-04T07:05:22.569Z,8.95
2023-09-04T07:07:49.156Z,9.13
2023-09-04T07:10:15.711Z,9.07
2023-09-04T07:12:42.110Z,8.82
2023-09-04T07:15:08.697Z,8.32
2023-09-04T07:17:35.230Z,8.30
2023-09-04T07:20:01.735Z,9.00
2023-09-04T07:22:28.108Z,8.57
2023-09-04T07:24:54.562Z,8.95
2023-09-04T07:27:21.413Z,8.90
2023-09-04T07:29:47.964Z,8.13
2023-09-04T07:32:14.524Z,8.35
2023-09-04T07:34:41.021Z,8.18
2023-09-04T07:37:07.527Z,7.72
2023-09-04T07:39:33.973Z,8.48
2023-09-04T07:42:01.221Z,8.68
2023-09-04T07:44:27.647Z,8.60
2023-09-04T07:46:54.325Z,8.15
2023-09-04T07:49:20.989Z,8.30
2023-09-04T07:51:47.513Z,8.52
2023-09-04T07:54:14.029Z,8.45
2023-09-04T07:56:42.595Z,9.13
2023-09-04T07:59:09.981Z,8.32
2023-09-04T08:01:36.490Z,9.05
2023-09-04T08:04:04.164Z,8.10
2023-09-04T08:06:30.899Z,8.98
2023-09-04T08:08:57.335Z,8.75
2023-09-04T08:11:23.968Z,8.07
2023-09-04T08:13:50.605Z,8.18
2023-09-04T08:16:17.096Z,8.13
2023-09-04T08:18:43.649Z,6.55
2023-09-04T08:21:14.278Z,7.47
2023-09-04T08:26:08.110Z,6.78
2023-09-04T08:28:34.565Z,6.70
2023-09-04T08:31:01.182Z,6.95
2023-09-04T08:33:27.674Z,6.65
2023-09-04T08:35:55.157Z,5.78
2023-09-04T08:38:21.622Z,6.30
2023-09-04T08:40:47.977Z,5.68
2023-09-04T08:43:16.804Z,5.93
2023-09-04T08:45:43.844Z,5.72
2023-09-04T08:48:11.959Z,5.80
2023-09-04T08:50:38.318Z,5.60
2023-09-04T08:53:05.148Z,6.05
2023-09-04T08:55:32.381Z,5.95
2023-09-04T08:58:00.649Z,5.05
2023-09-04T09:00:27.608Z,5.40
2023-09-04T09:02:56.210Z,5.13
2023-09-04T09:05:25.937Z,5.30
2023-09-04T09:07:53.107Z,5.40
2023-09-04T09:10:20.766Z,5.10
2023-09-04T09:12:47.584Z,5.97
2023-09-04T09:15:15.493Z,5.63
2023-09-04T09:17:51.463Z,5.90
2023-09-04T09:20:44.218Z,5.85
2023-09-04T09:23:10.727Z,5.70
2023-09-04T09:25:38.752Z,6.35
2023-09-04T09:28:06.817Z,5.43
2023-09-04T09:30:34.890Z,5.75
2023-09-04T09:33:03.789Z,5.80
2023-09-04T09:35:33.554Z,5.28
2023-09-04T09:38:02.935Z,4.93
2023-09-04T09:40:30.184Z,5.03
2023-09-04T09:42:56.600Z,4.90
2023-09-04T09:45:23.093Z,5.13
2023-09-04T09:47:51.097Z,4.70
2023-09-04T09:50:18.826Z,4.82
2023-09-04T09:53:01.392Z,4.80
2023-09-04T09:55:29.219Z,5.00
2023-09-04T09:57:57.087Z,4.72
2023-09-04T10:00:23.681Z,5.00
2023-09-04T10:02:50.473Z,5.30
2023-09-04T10:05:17.212Z,5.63
2023-09-04T10:07:46.222Z,5.30
2023-09-04T10:10:12.690Z,5.40
2023-09-04T10:12:44.084Z,4.95
2023-09-04T10:15:12.258Z,4.53
2023-09-04T10:17:42.909Z,4.65
2023-09-04T10:20:09.833Z,4.43
2023-09-04T10:22:38.332Z,4.72
2023-09-04T10:25:13.399Z,4.63
2023-09-04T10:27:42.435Z,4.75
2023-09-04T10:30:10.710Z,4.55
2023-09-04T10:32:37.440Z,4.82
2023-09-04T10:35:04.061Z,4.55
2023-09-04T10:37:32.332Z,4.30
2023-09-04T10:40:02.298Z,4.00
2023-09-04T10:42:30.066Z,4.25
2023-09-04T10:44:57.484Z,4.28
2023-09-04T10:47:24.268Z,3.85
2023-09-04T10:49:50.720Z,4.40
2023-09-04T10:52:17.482Z,4.20
2023-09-04T10:54:44.361Z,5.40
2023-09-04T10:57:14.519Z,4.57
2023-09-04T11:00:07.825Z,4.70
2023-09-04T11:02:35.234Z,4.85
2023-09-04T11:05:02.471Z,4.43
2023-09-04T11:07:29.982Z,4.70
2023-09-04T11:10:30.295Z,4.60
2023-09-04T11:12:56.918Z,4.50
2023-09-04T11:15:23.629Z,4.68
2023-09-04T11:17:50.925Z,4.40
2023-09-04T11:20:18.428Z,4.60
2023-09-04T11:22:51.139Z,4.40
2023-09-04T11:25:17.885Z,4.50
2023-09-04T11:27:47.891Z,5.13
2023-09-04T11:30:15.458Z,4.57
2023-09-04T11:32:42.383Z,4.32
2023-09-04T11:35:13.060Z,4.97
2023-09-04T11:37:39.593Z,5.13
2023-09-04T11:40:08.510Z,4.30
2023-09-04T11:42:35.232Z,4.40
2023-09-04T11:45:01.734Z,5.10
2023-09-04T11:47:28.364Z,5.45
2023-09-04T11:49:54.842Z,4.60
2023-09-04T11:52:24.239Z,5.05
2023-09-04T11:54:52.562Z,4.65
2023-09-04T11:57:19.005Z,4.47
2023-09-04T11:59:45.452Z,4.78
2023-09-04T12:02:11.947Z,5.13
2023-09-04T12:04:38.508Z,4.55
2023-09-04T12:07:06.071Z,4.43
2023-09-04T12:09:34.605Z,4.35
2023-09-04T12:12:02.168Z,4.50
2023-09-04T12:14:28.767Z,4.40
2023-09-04T12:16:55.344Z,4.50
2023-09-04T12:19:23.342Z,4.82
2023-09-04T12:21:49.918Z,5.15
2023-09-04T12:24:17.284Z,4.85
2023-09-04T12:26:44.504Z,4.55
2023-09-04T12:29:11.552Z,5.03
2023-09-04T12:31:38.557Z,4.53
2023-09-04T12:34:05.699Z,4.78
2023-09-04T12:36:33.020Z,4.45
2023-09-04T12:38:59.894Z,4.60
2023-09-04T12:41:26.906Z,4.35
2023-09-04T12:43:53.420Z,4.90
2023-09-04T12:46:20.114Z,4.38
2023-09-04T12:48:46.662Z,4.55
2023-09-04T12:51:13.165Z,4.38
2023-09-04T12:53:39.966Z,5.30
2023-09-04T12:56:07.149Z,4.60
2023-09-04T12:58:35.705Z,4.68
2023-09-04T13:01:03.910Z,4.50
2023-09-04T13:03:30.754Z,4.38
2023-09-04T13:05:58.487Z,4.25
2023-09-04T13:08:25.131Z,4.20
2023-09-04T13:10:51.565Z,4.00
2023-09-04T13:13:18.028Z,4.28
2023-09-04T13:15:44.482Z,4.10
2023-09-04T13:18:11.111Z,3.97
2023-09-04T13:20:37.567Z,4.10
2023-09-04T13:23:04.434Z,4.20
2023-09-04T13:25:30.848Z,4.53
2023-09-04T13:27:57.322Z,4.55
2023-09-04T13:30:23.901Z,3.95
2023-09-04T13:32:51.003Z,4.00
2023-09-04T13:35:17.484Z,4.97
2023-09-04T13:37:43.934Z,4.25
2023-09-04T13:40:10.658Z,4.18
2023-09-04T13:42:37.183Z,4.57
2023-09-04T13:45:04.400Z,3.80
2023-09-04T13:47:30.915Z,4.47
2023-09-04T13:49:58.719Z,4.55
2023-09-04T13:52:25.719Z,4.22
2023-09-04T13:54:57.126Z,4.22
2023-09-04T13:57:26.949Z,4.32
2023-09-04T13:59:53.538Z,4.18
2023-09-04T14:02:20.364Z,3.90
2023-09-04T14:04:46.948Z,3.70
2023-09-04T14:07:13.693Z,4.20
2023-09-04T14:09:40.268Z,4.18
2023-09-04T14:12:06.926Z,4.00
2023-09-04T14:14:33.429Z,4.35
2023-09-04T14:16:59.962Z,3.95
2023-09-04T14:19:26.458Z,4.53
2023-09-04T14:21:55.182Z,4.50
2023-09-04T14:24:22.332Z,4.20
2023-09-04T14:26:48.915Z,4.40
2023-09-04T14:29:15.424Z,4.20
2023-09-04T14:31:42.051Z,4.22
2023-09-04T14:34:08.685Z,4.50
2023-09-04T14:36:35.163Z,4.32
2023-09-04T14:39:02.192Z,4.25
2023-09-04T14:41:33.258Z,4.05
2023-09-04T14:44:00.225Z,4.22
2023-09-04T14:46:27.198Z,4.30
2023-09-04T14:48:54.390Z,4.30
2023-09-04T14:51:21.542Z,4.60
2023-09-04T14:53:50.627Z,4.70
2023-09-04T14:56:17.201Z,4.20
2023-09-04T14:58:43.712Z,4.57
2023-09-04T15:01:17.144Z,4.47
2023-09-04T15:03:44.886Z,4.55
2023-09-04T15:06:11.882Z,4.68
2023-09-04T15:08:38.924Z,6.85
2023-09-04T15:11:06.481Z,4.53
2023-09-04T15:13:41.251Z,4.30
2023-09-04T15:16:07.896Z,4.20
2023-09-04T15:18:34.823Z,4.32
2023-09-04T15:21:03.028Z,4.38
2023-09-04T15:23:29.897Z,4.20
2023-09-04T15:25:56.598Z,4.20
2023-09-04T15:28:23.693Z,4.25
2023-09-04T15:30:50.656Z,4.32
2023-09-04T15:33:17.352Z,5.03
2023-09-04T15:35:48.483Z,4.60
2023-09-04T15:38:15.573Z,4.30
2023-09-04T15:40:42.051Z,3.83
2023-09-04T15:43:08.574Z,3.92
2023-09-04T15:45:39.460Z,4.40
2023-09-04T15:48:06.141Z,7.05
2023-09-04T15:50:32.647Z,5.60
2023-09-04T15:53:00.488Z,5.30
2023-09-04T15:55:27.139Z,4.88
2023-09-04T15:57:53.639Z,4.63
2023-09-04T16:00:20.223Z,4.57
2023-09-04T16:02:46.730Z,4.28
2023-09-04T16:05:13.280Z,5.00
2023-09-04T16:07:42.349Z,4.28
2023-09-04T16:10:08.913Z,5.22
2023-09-04T16:12:35.422Z,4.80
2023-09-04T16:15:02.042Z,4.15
2023-09-04T16:17:28.530Z,4.47
2023-09-04T16:19:54.966Z,4.25
2023-09-04T16:22:21.543Z,4.53
2023-09-04T16:24:47.934Z,4.32
2023-09-04T16:27:14.430Z,4.20
2023-09-04T16:29:40.884Z,4.50
2023-09-04T16:32:07.362Z,4.68
2023-09-04T16:34:34.081Z,4.10
2023-09-04T16:37:00.971Z,4.47
2023-09-04T16:39:27.436Z,4.75
2023-09-04T16:41:53.823Z,4.50
2023-09-04T16:44:20.201Z,4.30
2023-09-04T16:46:46.710Z,4.55
2023-09-04T16:49:13.257Z,4.22
2023-09-04T16:51:53.958Z,4.70
2023-09-04T16:54:25.282Z,4.70
2023-09-04T16:56:51.701Z,4.60
2023-09-04T16:59:18.136Z,5.07
2023-09-04T17:01:44.562Z,5.93
2023-09-04T17:04:11.117Z,5.82
2023-09-04T17:06:37.591Z,5.85
2023-09-04T17:09:05.996Z,6.30
2023-09-04T17:11:32.589Z,5.90
2023-09-04T17:13:59.008Z,5.53
2023-09-04T17:16:25.470Z,5.78
2023-09-04T17:18:52.443Z,4.97
2023-09-04T17:21:18.884Z,5.20
2023-09-04T17:23:45.678Z,4.75
2023-09-04T17:26:12.122Z,5.05
2023-09-04T17:28:38.560Z,5.30
2023-09-04T17:31:08.189Z,7.32
2023-09-04T17:33:34.797Z,8.15
2023-09-04T17:36:02.697Z,6.70
2023-09-04T17:38:34.362Z,6.18
2023-09-04T17:41:10.903Z,6.10
2023-09-04T17:43:37.880Z,5.72
2023-09-04T17:46:04.446Z,5.70
2023-09-04T17:48:31.633Z,5.90
2023-09-04T17:50:58.377Z,5.60
2023-09-04T17:53:24.916Z,5.57
2023-09-04T17:55:51.347Z,5.38
2023-09-04T17:58:17.874Z,5.97
2023-09-04T18:00:45.730Z,5.55
2023-09-04T18:03:12.259Z,5.30
2023-09-04T18:05:48.293Z,5.57
2023-09-04T18:08:14.820Z,5.40
2023-09-04T18:10:42.752Z,5.53
2023-09-04T18:13:09.246Z,6.32
2023-09-04T18:15:35.916Z,5.50
2023-09-04T18:18:02.517Z,5.75
2023-09-04T18:20:29.091Z,6.68
2023-09-04T18:22:55.567Z,5.43
2023-09-04T18:25:22.221Z,6.00
2023-09-04T18:27:50.159Z,5.65
2023-09-04T18:30:16.849Z,5.50
2023-09-04T18:32:43.338Z,6.07
2023-09-04T18:35:09.798Z,7.00
2023-09-04T18:37:36.234Z,7.07
2023-09-04T18:40:02.755Z,6.22
2023-09-04T18:42:29.279Z,6.35
2023-09-04T18:44:55.818Z,6.20
2023-09-04T18:47:22.439Z,6.30
2023-09-04T18:49:50.124Z,6.00
2023-09-04T18:52:16.740Z,6.45
2023-09-04T18:54:43.217Z,7.28
2023-09-04T18:57:09.686Z,7.53
2023-09-04T18:59:38.099Z,6.50
2023-09-04T19:02:04.740Z,6.25
2023-09-04T19:04:31.348Z,5.65
2023-09-04T19:06:57.870Z,6.38
2023-09-04T19:09:24.362Z,6.15
2023-09-04T19:11:50.821Z,6.45
2023-09-04T19:14:17.295Z,5.97
2023-09-04T19:16:43.820Z,5.90
2023-09-04T19:19:10.324Z,6.40
2023-09-04T19:21:36.712Z,5.82
2023-09-04T19:24:03.891Z,6.53
2023-09-04T19:26:30.359Z,6.18
2023-09-04T19:28:56.919Z,5.95
2023-09-04T19:31:23.596Z,5.90
2023-09-04T19:33:51.357Z,5.90
2023-09-04T19:36:18.365Z,6.45
2023-09-04T19:38:44.787Z,5.78
2023-09-04T19:41:11.410Z,6.40
2023-09-04T19:43:38.920Z,6.30
2023-09-04T19:46:05.502Z,6.22
2023-09-04T19:48:32.016Z,6.40
2023-09-04T19:50:58.527Z,6.20
2023-09-04T19:53:25.014Z,6.95
2023-09-04T19:55:51.598Z,6.18
2023-09-04T19:58:18.133Z,6.30
2023-09-04T20:00:44.589Z,6.43
2023-09-04T20:03:12.551Z,6.40
2023-09-04T20:05:39.104Z,6.05
2023-09-04T20:08:05.667Z,6.53
2023-09-04T20:10:32.133Z,6.40
2023-09-04T20:12:58.553Z,7.25
2023-09-04T20:15:25.218Z,6.68
2023-09-04T20:17:51.732Z,7.07
2023-09-04T20:20:18.198Z,6.07
2023-09-04T20:22:44.698Z,6.57
2023-09-04T20:25:11.254Z,7.05
2023-09-04T20:27:37.851Z,6.63
2023-09-04T20:30:04.742Z,6.80
2023-09-04T20:32:31.269Z,6.47
2023-09-04T20:34:58.835Z,7.05
2023-09-04T20:37:25.327Z,7.00
2023-09-04T20:39:51.828Z,5.97
2023-09-04T20:42:18.241Z,6.50
2023-09-04T20:44:45.710Z,8.25
2023-09-04T20:47:12.783Z,7.63
2023-09-04T20:49:41.626Z,7.75
2023-09-04T20:52:08.515Z,8.10
2023-09-04T20:54:35.018Z,7.75
2023-09-04T20:57:01.782Z,7.53
2023-09-04T20:59:28.301Z,7.32
2023-09-04T21:01:54.780Z,7.45
2023-09-04T21:04:21.234Z,7.72
2023-09-04T21:06:47.645Z,6.80
2023-09-04T21:09:14.064Z,6.88
2023-09-04T21:11:40.566Z,7.00
2023-09-04T21:14:25.952Z,6.82
2023-09-04T21:17:11.149Z,6.32
2023-09-04T21:19:56.567Z,7.18
2023-09-04T21:22:41.666Z,6.20
2023-09-04T21:25:26.963Z,6.13
2023-09-04T21:28:12.181Z,6.03
2023-09-04T21:30:58.089Z,6.07
2023-09-04T21:33:43.096Z,6.60
2023-09-04T21:36:28.219Z,6.43
2023-09-04T21:39:13.391Z,6.22
2023-09-04T21:41:58.509Z,6.53
2023-09-04T21:44:43.614Z,6.57
2023-09-04T21:47:29.027Z,6.57
2023-09-04T21:50:13.930Z,6.50
2023-09-04T21:52:59.118Z,7.18
2023-09-04T21:55:44.190Z,7.40
2023-09-04T21:58:29.650Z,6.50
2023-09-04T22:01:14.622Z,6.63
2023-09-04T22:03:59.979Z,6.68
2023-09-04T22:06:45.042Z,6.43
2023-09-04T22:09:30.244Z,6.93
2023-09-04T22:12:15.502Z,7.03
2023-09-04T22:15:00.367Z,7.15
2023-09-04T22:17:45.399Z,6.78
2023-09-04T22:20:30.745Z,6.60
2023-09-04T22:23:15.824Z,7.22
2023-09-04T22:26:00.873Z,7.07
2023-09-04T22:28:45.724Z,6.75
2023-09-04T22:31:30.983Z,7.22
2023-09-04T22:34:16.169Z,6.70
2023-09-04T22:37:01.288Z,7.00
2023-09-04T22:39:46.630Z,7.07
2023-09-04T22:42:31.486Z,6.70
2023-09-04T22:45:16.855Z,6.68
2023-09-04T22:48:02.048Z,6.80
2023-09-04T22:50:47.104Z,6.72
2023-09-04T22:53:32.183Z,6.40
2023-09-04T22:56:17.200Z,6.97
2023-09-04T22:59:02.145Z,6.72
2023-09-04T23:01:47.391Z,6.32
2023-09-04T23:04:32.662Z,6.50
2023-09-04T23:07:17.675Z,6.78
2023-09-04T23:10:02.486Z,6.97
2023-09-04T23:12:47.652Z,6.65
2023-09-04T23:15:32.833Z,7.57
2023-09-04T23:18:17.803Z,6.85
2023-09-04T23:21:02.913Z,6.95
2023-09-04T23:23:29.449Z,6.28
2023-09-04T23:25:57.940Z,6.60
2023-09-04T23:28:25.438Z,7.07
2023-09-04T23:30:55.725Z,6.95
2023-09-04T23:33:37.944Z,7.25
2023-09-04T23:36:16.141Z,6.93
2023-09-04T23:39:02.925Z,6.75
2023-09-04T23:41:47.805Z,6.75
2023-09-04T23:44:32.884Z,7.15
2023-09-04T23:46:59.683Z,6.50
2023-09-04T23:49:26.155Z,6.95
2023-09-04T23:51:55.895Z,7.15
2023-09-04T23:54:22.338Z,6.70
2023-09-04T23:56:48.803Z,6.90
2023-09-04T23:59:15.414Z,7.03
